createdAt,value
2018-09-06T00:00:47.141Z,74.70
2018-09-06T00:03:15.704Z,74.70
2018-09-06T00:05:44.270Z,74.70
2018-09-06T00:08:12.933Z,75.40
2018-09-06T00:10:41.479Z,74.90
2018-09-06T00:13:10.001Z,74.90
2018-09-06T00:15:38.625Z,75.00
2018-09-06T00:18:07.206Z,75.10
2018-09-06T00:20:35.845Z,75.10
2018-09-06T00:23:04.439Z,75.00
2018-09-06T00:25:33.690Z,75.00
2018-09-06T00:28:02.331Z,75.10
2018-09-06T00:30:31.013Z,75.20
2018-09-06T00:32:59.562Z,75.30
2018-09-06T00:35:28.256Z,75.40
2018-09-06T00:37:56.790Z,75.40
2018-09-06T00:40:28.263Z,75.60
2018-09-06T00:42:56.851Z,75.60
2018-09-06T00:45:25.583Z,75.70
2018-09-06T00:47:54.150Z,75.70
2018-09-06T00:50:23.142Z,75.70
2018-09-06T00:52:52.612Z,75.80
2018-09-06T00:55:21.630Z,75.90
2018-09-06T00:57:50.191Z,76.00
2018-09-06T01:00:18.905Z,76.10
2018-09-06T01:02:47.508Z,76.00
2018-09-06T01:05:16.042Z,76.30
2018-09-06T01:07:44.591Z,76.20
2018-09-06T01:10:13.626Z,76.30
2018-09-06T01:12:42.098Z,76.20
2018-09-06T01:15:10.878Z,76.40
2018-09-06T01:17:39.380Z,76.40
2018-09-06T01:20:07.992Z,75.90
2018-09-06T01:22:36.672Z,76.70
2018-09-06T01:25:05.264Z,76.80
2018-09-06T01:27:33.811Z,76.80
2018-09-06T01:47:06.829Z,76.90
2018-09-06T01:49:35.413Z,76.80
2018-09-06T01:52:04.518Z,77.00
2018-09-06T02:11:40.953Z,77.10
2018-09-06T02:14:09.466Z,77.10
2018-09-06T02:16:38.102Z,77.10
2018-09-06T02:19:06.728Z,77.20
2018-09-06T02:21:35.247Z,77.30
2018-09-06T02:24:03.897Z,77.70
2018-09-06T02:26:32.353Z,77.40
2018-09-06T02:29:00.969Z,77.50
2018-09-06T02:31:29.571Z,77.60
2018-09-06T02:33:58.126Z,77.80
2018-09-06T02:36:26.547Z,77.80
2018-09-06T02:38:55.110Z,77.80
2018-09-06T02:41:23.584Z,77.90
2018-09-06T02:43:52.158Z,77.90
2018-09-06T02:46:20.562Z,77.80
2018-09-06T02:48:54.010Z,78.00
2018-09-06T02:51:22.551Z,77.90
2018-09-06T02:53:51.308Z,78.00
2018-09-06T02:56:19.765Z,78.20
2018-09-06T02:58:48.255Z,78.10
2018-09-06T03:01:16.760Z,78.20
2018-09-06T03:03:45.372Z,78.30
2018-09-06T03:06:13.907Z,78.50
2018-09-06T03:08:42.469Z,78.40
2018-09-06T03:11:13.716Z,78.50
2018-09-06T03:30:46.742Z,78.70
2018-09-06T03:33:16.510Z,78.80
2018-09-06T03:52:49.709Z,79.30
2018-09-06T03:55:18.218Z,79.30
2018-09-06T03:57:46.861Z,79.30
2018-09-06T04:00:15.493Z,79.40
2018-09-06T04:02:44.047Z,79.60
2018-09-06T04:05:12.590Z,79.70
2018-09-06T04:07:46.283Z,79.80
2018-09-06T04:27:27.393Z,80.50
2018-09-06T04:32:49.570Z,80.40
2018-09-06T04:35:18.036Z,80.60
2018-09-06T04:37:46.293Z,80.80
2018-09-06T04:57:18.586Z,81.40
2018-09-06T04:59:46.995Z,81.50
2018-09-06T05:02:15.344Z,81.50
2018-09-06T05:04:43.709Z,81.60
2018-09-06T05:07:12.037Z,81.80
2018-09-06T05:09:40.328Z,81.70
2018-09-06T05:12:08.694Z,82.00
2018-09-06T05:14:37.049Z,82.10
2018-09-06T05:17:05.411Z,81.90
2018-09-06T05:19:33.777Z,82.10
2018-09-06T05:22:02.193Z,82.20
2018-09-06T05:27:21.083Z,82.40
2018-09-06T05:32:40.971Z,82.40
2018-09-06T05:35:11.237Z,82.40
2018-09-06T05:37:52.904Z,82.60
2018-09-06T05:40:21.381Z,82.80
2018-09-06T05:42:49.858Z,82.60
2018-09-06T05:45:18.287Z,82.70
2018-09-06T05:47:50.920Z,82.70
2018-09-06T05:50:19.484Z,82.70
2018-09-06T05:52:47.929Z,82.60
2018-09-06T05:55:18.946Z,82.70
2018-09-06T05:57:47.546Z,82.90
2018-09-06T06:08:50.058Z,83.00
2018-09-06T06:11:19.242Z,83.10
2018-09-06T06:13:48.833Z,83.20
2018-09-06T06:16:17.153Z,83.10
2018-09-06T06:18:45.835Z,83.30
2018-09-06T06:21:17.388Z,83.20
2018-09-06T06:26:40.083Z,83.40
2018-09-06T06:29:10.630Z,83.30
2018-09-06T06:31:40.250Z,83.70
2018-09-06T06:34:09.967Z,83.30
2018-09-06T06:36:38.834Z,83.50
2018-09-06T06:39:13.070Z,83.60
2018-09-06T06:41:42.390Z,83.70
2018-09-06T06:44:12.186Z,83.70
2018-09-06T06:46:46.380Z,83.80
2018-09-06T06:49:14.944Z,83.80
2018-09-06T06:51:43.317Z,83.70
2018-09-06T06:54:12.775Z,83.60
2018-09-06T06:56:41.038Z,83.70
2018-09-06T06:59:09.381Z,84.20
2018-09-06T07:01:38.041Z,83.90
2018-09-06T07:04:06.393Z,83.90
2018-09-06T07:06:34.709Z,84.00
2018-09-06T07:09:03.552Z,84.10
2018-09-06T07:11:31.877Z,84.00
2018-09-06T07:14:21.140Z,84.30
2018-09-06T07:16:49.530Z,84.20
2018-09-06T07:19:17.881Z,84.20
2018-09-06T07:21:46.166Z,84.20
2018-09-06T07:24:14.520Z,84.40
2018-09-06T07:26:42.806Z,84.40
2018-09-06T07:30:10.038Z,84.50
2018-09-06T07:32:38.297Z,84.80
2018-09-06T07:35:06.944Z,84.80
2018-09-06T07:37:35.274Z,84.80
2018-09-06T07:40:03.995Z,84.80
2018-09-06T07:42:32.485Z,84.90
2018-09-06T07:53:32.702Z,84.90
2018-09-06T07:56:01.108Z,85.10
2018-09-06T07:58:29.565Z,85.00
2018-09-06T08:00:57.993Z,85.20
2018-09-06T08:03:26.361Z,85.20
2018-09-06T08:05:54.759Z,85.20
2018-09-06T08:08:23.045Z,85.20
2018-09-06T08:10:51.394Z,85.30
2018-09-06T08:13:19.701Z,85.40
2018-09-06T08:15:48.078Z,85.50
2018-09-06T08:18:36.786Z,85.20
2018-09-06T08:21:10.622Z,85.30
2018-09-06T08:23:39.885Z,85.50
2018-09-06T08:26:10.238Z,85.40
2018-09-06T08:28:38.591Z,85.50
2018-09-06T08:31:08.302Z,85.60
2018-09-06T08:33:36.663Z,85.50
2018-09-06T08:36:05.084Z,85.80
2018-09-06T08:38:33.607Z,85.70
2018-09-06T08:41:02.036Z,85.70
2018-09-06T08:43:30.453Z,85.70
2018-09-06T08:45:59.510Z,85.90
2018-09-06T08:48:29.290Z,85.90
2018-09-06T08:51:00.474Z,86.00
2018-09-06T08:53:28.846Z,86.00
2018-09-06T08:55:57.307Z,86.00
2018-09-06T08:58:25.706Z,85.80
2018-09-06T09:00:59.409Z,85.60
2018-09-06T09:03:27.833Z,85.80
2018-09-06T09:05:56.215Z,85.80
2018-09-06T09:08:24.987Z,85.90
2018-09-06T09:10:53.482Z,85.90
2018-09-06T09:13:21.945Z,85.90
2018-09-06T09:15:50.330Z,86.00
2018-09-06T09:18:18.725Z,86.00
2018-09-06T09:20:47.029Z,86.00
2018-09-06T09:23:15.633Z,86.00
2018-09-06T09:25:45.536Z,86.00
2018-09-06T09:28:14.502Z,86.10
2018-09-06T09:54:01.925Z,86.80
2018-09-06T10:16:39.397Z,85.80
2018-09-06T10:19:08.380Z,85.60
2018-09-06T10:44:34.165Z,84.30
2018-09-06T10:47:03.705Z,84.10
2018-09-06T10:49:32.537Z,84.00
2018-09-06T10:52:01.227Z,83.90
2018-09-06T10:54:29.689Z,83.90
2018-09-06T10:56:58.119Z,84.00
2018-09-06T10:59:26.722Z,84.00
2018-09-06T11:01:55.230Z,84.20
2018-09-06T11:04:23.730Z,84.20
2018-09-06T11:06:52.267Z,84.20
2018-09-06T11:09:20.840Z,84.40
2018-09-06T11:11:49.301Z,84.10
2018-09-06T11:14:17.810Z,84.20
2018-09-06T11:16:46.104Z,84.20
2018-09-06T11:19:14.689Z,84.20
2018-09-06T11:21:43.217Z,84.00
2018-09-06T11:24:11.409Z,84.00
2018-09-06T11:26:39.860Z,84.00
2018-09-06T11:29:08.217Z,84.10
2018-09-06T11:31:36.551Z,84.00
2018-09-06T11:34:05.161Z,83.70
2018-09-06T11:36:33.601Z,83.20
2018-09-06T11:39:02.098Z,83.80
2018-09-06T11:41:30.658Z,83.90
2018-09-06T11:43:59.164Z,83.80
2018-09-06T11:46:31.363Z,83.80
2018-09-06T11:48:59.786Z,83.80
2018-09-06T11:54:02.118Z,83.60
2018-09-06T11:56:30.581Z,83.60
2018-09-06T11:58:59.009Z,83.40
2018-09-06T12:01:27.486Z,83.10
2018-09-06T12:03:56.162Z,82.90
2018-09-06T12:06:24.734Z,82.70
2018-09-06T12:08:53.303Z,82.60
2018-09-06T12:11:21.777Z,82.50
2018-09-06T12:13:50.328Z,82.70
2018-09-06T12:16:18.758Z,83.30
2018-09-06T12:18:47.465Z,82.70
2018-09-06T12:21:16.022Z,82.80
2018-09-06T12:23:44.457Z,82.80
2018-09-06T12:26:13.140Z,82.60
2018-09-06T12:28:41.563Z,82.50
2018-09-06T12:31:10.051Z,82.30
2018-09-06T12:33:38.612Z,82.30
2018-09-06T12:36:07.363Z,82.20
2018-09-06T12:38:35.904Z,82.00
2018-09-06T12:41:04.589Z,82.00
2018-09-06T12:43:33.064Z,82.00
2018-09-06T12:46:01.563Z,81.20
2018-09-06T12:48:33.214Z,82.00
2018-09-06T12:51:02.070Z,81.90
2018-09-06T12:53:31.340Z,82.20
2018-09-06T12:55:59.711Z,82.30
2018-09-06T12:58:28.404Z,82.20
2018-09-06T13:03:59.612Z,82.50
2018-09-06T13:06:28.180Z,82.40
2018-09-06T13:08:56.662Z,82.00
2018-09-06T13:11:25.166Z,82.10
2018-09-06T13:13:53.661Z,82.40
2018-09-06T13:16:22.208Z,82.50
2018-09-06T13:18:51.071Z,82.60
2018-09-06T13:21:19.552Z,82.60
2018-09-06T13:23:48.086Z,82.50
2018-09-06T13:26:16.607Z,82.50
2018-09-06T13:28:45.155Z,82.50
2018-09-06T13:31:13.677Z,82.50
2018-09-06T13:33:49.694Z,82.40
2018-09-06T13:36:18.089Z,82.40
2018-09-06T13:38:46.964Z,82.50
2018-09-06T13:41:15.525Z,82.40
2018-09-06T13:43:44.282Z,82.30
2018-09-06T13:46:12.753Z,82.40
2018-09-06T13:48:41.141Z,82.50
2018-09-06T13:51:09.641Z,82.60
2018-09-06T13:53:38.321Z,82.40
2018-09-06T13:56:06.814Z,82.30
2018-09-06T13:58:53.873Z,82.30
2018-09-06T14:01:22.427Z,82.20
2018-09-06T14:03:50.889Z,82.30
2018-09-06T14:06:19.476Z,82.10
2018-09-06T14:08:47.961Z,82.30
2018-09-06T14:11:16.591Z,82.30
2018-09-06T14:13:45.042Z,82.50
2018-09-06T14:16:13.515Z,82.40
2018-09-06T14:18:41.990Z,82.60
2018-09-06T14:21:10.630Z,82.50
2018-09-06T14:23:39.206Z,82.60
2018-09-06T14:26:07.710Z,82.50
2018-09-06T14:28:36.304Z,82.50
2018-09-06T14:31:04.767Z,82.40
2018-09-06T14:33:33.256Z,82.70
2018-09-06T14:36:01.882Z,82.70
2018-09-06T14:38:30.421Z,82.50
2018-09-06T14:40:58.907Z,82.40
2018-09-06T14:43:27.386Z,82.50
2018-09-06T14:45:55.989Z,82.90
2018-09-06T14:48:24.779Z,82.70
2018-09-06T14:50:57.341Z,82.60
2018-09-06T14:53:25.877Z,82.60
2018-09-06T14:55:54.250Z,82.60
2018-09-06T14:58:24.642Z,82.60
2018-09-06T15:00:54.738Z,82.30
2018-09-06T15:03:26.685Z,81.90
2018-09-06T15:06:04.080Z,81.80
2018-09-06T15:08:32.741Z,81.50
2018-09-06T15:11:06.185Z,81.20
2018-09-06T15:13:38.182Z,81.20
2018-09-06T15:16:07.058Z,81.10
2018-09-06T15:18:36.711Z,81.00
2018-09-06T15:21:08.520Z,80.80
2018-09-06T15:23:41.647Z,81.00
2018-09-06T15:26:12.311Z,81.00
2018-09-06T15:28:43.503Z,81.20
2018-09-06T15:31:12.383Z,80.90
2018-09-06T15:33:43.523Z,81.00
2018-09-06T15:36:14.582Z,81.10
2018-09-06T15:38:46.814Z,81.20
2018-09-06T15:41:18.468Z,81.20
2018-09-06T15:44:19.427Z,81.20
2018-09-06T15:49:41.663Z,81.70
2018-09-06T15:52:14.351Z,81.60
2018-09-06T15:54:45.410Z,81.80
2018-09-06T15:57:17.313Z,82.00
2018-09-06T16:00:03.702Z,82.00
2018-09-06T16:02:38.076Z,82.80
2018-09-06T16:05:10.143Z,81.70
2018-09-06T16:07:41.174Z,81.80
2018-09-06T16:10:11.792Z,81.10
2018-09-06T16:15:39.704Z,81.50
2018-09-06T16:18:12.843Z,81.70
2018-09-06T16:21:04.489Z,81.80
2018-09-06T16:23:47.682Z,81.70
2018-09-06T16:35:13.285Z,81.80
2018-09-06T16:37:49.801Z,82.00
2018-09-06T16:40:18.130Z,82.00
2018-09-06T16:42:46.470Z,82.00
2018-09-06T16:45:14.742Z,81.90
2018-09-06T16:47:43.799Z,82.00
2018-09-06T16:50:12.105Z,81.80
2018-09-06T16:52:45.527Z,81.90
2018-09-06T16:55:14.391Z,81.80
2018-09-06T16:57:42.828Z,82.00
2018-09-06T17:00:11.183Z,82.10
2018-09-06T17:02:39.609Z,81.90
2018-09-06T17:05:07.999Z,82.10
2018-09-06T17:07:36.709Z,82.30
2018-09-06T17:10:07.139Z,82.40
2018-09-06T17:12:36.161Z,82.40
2018-09-06T17:17:55.474Z,82.50
2018-09-06T17:20:23.855Z,82.40
2018-09-06T17:22:52.494Z,82.40
2018-09-06T17:25:21.199Z,82.30
2018-09-06T17:27:49.581Z,82.50
2018-09-06T17:30:18.051Z,82.50
2018-09-06T17:32:53.254Z,82.70
2018-09-06T17:35:21.565Z,82.80
2018-09-06T17:37:49.884Z,82.80
2018-09-06T17:40:18.430Z,82.90
2018-09-06T17:42:49.434Z,82.90
2018-09-06T17:45:18.010Z,83.00
2018-09-06T17:47:46.397Z,83.20
2018-09-06T17:50:14.841Z,83.20
2018-09-06T17:52:43.658Z,83.30
2018-09-06T17:55:12.010Z,83.50
2018-09-06T17:57:41.654Z,83.40
2018-09-06T18:00:10.429Z,83.50
2018-09-06T18:02:45.523Z,83.60
2018-09-06T18:05:13.955Z,83.70
2018-09-06T18:07:42.387Z,83.70
2018-09-06T18:10:10.750Z,83.70
2018-09-06T18:12:39.175Z,84.40
2018-09-06T18:15:07.825Z,83.80
2018-09-06T18:17:36.563Z,83.80
2018-09-06T18:20:04.944Z,83.90
2018-09-06T18:22:44.154Z,83.90
2018-09-06T18:25:12.605Z,84.00
2018-09-06T18:27:41.118Z,83.80
2018-09-06T18:30:09.446Z,83.90
2018-09-06T18:32:37.707Z,83.90
2018-09-06T18:35:06.677Z,84.00
2018-09-06T18:37:35.078Z,84.00
2018-09-06T18:40:19.103Z,84.20
2018-09-06T18:42:47.702Z,84.00
2018-09-06T18:45:19.652Z,83.90
2018-09-06T18:47:50.234Z,84.10
2018-09-06T18:50:23.899Z,84.00
2018-09-06T18:52:52.912Z,84.00
2018-09-06T18:55:21.893Z,84.00
2018-09-06T18:58:06.634Z,84.10
2018-09-06T19:00:40.066Z,84.00
2018-09-06T19:03:14.539Z,84.10
2018-09-06T19:05:43.464Z,84.00
2018-09-06T19:08:13.091Z,84.00
2018-09-06T19:10:51.417Z,84.00
2018-09-06T19:13:21.158Z,84.00
2018-09-06T19:15:49.618Z,84.00
2018-09-06T19:18:17.981Z,83.80
2018-09-06T19:21:09.649Z,83.80
2018-09-06T19:23:40.602Z,84.10
2018-09-06T19:26:08.939Z,83.90
2018-09-06T19:28:41.770Z,84.00
2018-09-06T19:31:12.605Z,84.00
2018-09-06T19:33:41.313Z,84.10
2018-09-06T19:36:09.998Z,84.00
2018-09-06T19:38:39.586Z,84.10
2018-09-06T19:41:08.579Z,84.20
2018-09-06T19:43:36.924Z,84.10
2018-09-06T19:46:05.482Z,84.90
2018-09-06T19:48:35.909Z,84.20
2018-09-06T19:51:04.989Z,84.10
2018-09-06T19:53:33.674Z,84.10
2018-09-06T19:56:20.947Z,84.10
2018-09-06T19:58:49.581Z,84.20
2018-09-06T20:01:18.189Z,84.20
2018-09-06T20:03:46.709Z,84.20
2018-09-06T20:06:16.371Z,84.30
2018-09-06T20:08:44.842Z,84.40
2018-09-06T20:11:13.350Z,84.40
2018-09-06T20:13:41.766Z,84.50
2018-09-06T20:16:10.174Z,84.60
2018-09-06T20:18:38.771Z,84.60
2018-09-06T20:21:07.327Z,84.60
2018-09-06T20:23:37.018Z,84.60
2018-09-06T20:26:05.459Z,84.70
2018-09-06T20:28:34.098Z,84.80
2018-09-06T20:31:02.506Z,84.60
2018-09-06T20:33:31.071Z,84.70
2018-09-06T20:35:59.485Z,84.80
2018-09-06T20:38:27.945Z,84.80
2018-09-06T20:40:56.414Z,84.90
2018-09-06T20:43:24.778Z,84.90
2018-09-06T20:45:53.226Z,85.00
2018-09-06T20:48:21.632Z,85.00
2018-09-06T20:50:50.047Z,85.00
2018-09-06T20:53:18.705Z,85.20
2018-09-06T20:55:47.578Z,85.30
2018-09-06T20:58:16.029Z,85.50
2018-09-06T21:00:44.768Z,85.40
2018-09-06T21:03:13.371Z,85.50
2018-09-06T21:05:41.908Z,86.10
2018-09-06T21:08:11.295Z,85.50
2018-09-06T21:10:39.921Z,85.50
2018-09-06T21:13:08.358Z,85.60
2018-09-06T21:15:37.334Z,85.50
2018-09-06T21:18:05.875Z,85.50
2018-09-06T21:20:34.282Z,85.60
2018-09-06T21:23:09.090Z,85.50
2018-09-06T21:25:51.178Z,85.60
2018-09-06T21:28:19.861Z,85.70
2018-09-06T21:30:48.526Z,85.70
2018-09-06T21:33:17.126Z,85.60
2018-09-06T21:35:48.585Z,85.70
2018-09-06T21:38:17.348Z,85.80
2018-09-06T21:40:46.076Z,85.80
2018-09-06T21:43:14.751Z,85.80
2018-09-06T21:45:43.171Z,86.00
2018-09-06T21:48:11.791Z,86.00
2018-09-06T21:50:40.276Z,86.10
2018-09-06T21:53:09.031Z,86.10
2018-09-06T21:55:38.465Z,86.10
2018-09-06T21:58:06.806Z,86.10
2018-09-06T22:03:31.226Z,86.10
2018-09-06T22:05:59.777Z,86.00
2018-09-06T22:08:28.281Z,86.00
2018-09-06T22:10:56.785Z,86.10
2018-09-06T22:13:25.301Z,86.20
2018-09-06T22:15:53.668Z,86.20
2018-09-06T22:18:27.556Z,86.10
2018-09-06T22:20:55.969Z,86.20
2018-09-06T22:23:24.335Z,86.20
2018-09-06T22:25:52.816Z,86.20
2018-09-06T22:28:21.298Z,86.20
2018-09-06T22:30:49.725Z,86.20
2018-09-06T22:33:18.166Z,86.30
2018-09-06T22:35:46.484Z,86.40
2018-09-06T22:38:14.802Z,86.30
2018-09-06T22:40:43.193Z,86.50
2018-09-06T22:43:13.857Z,86.40
2018-09-06T22:45:42.397Z,86.50
2018-09-06T22:48:10.832Z,86.50
2018-09-06T22:50:40.601Z,86.50
2018-09-06T22:53:13.925Z,86.60
2018-09-06T22:55:46.156Z,86.50
2018-09-06T22:58:14.706Z,86.50
2018-09-06T23:00:44.728Z,86.50
2018-09-06T23:03:18.525Z,86.60
2018-09-06T23:08:49.351Z,86.60
2018-09-06T23:11:17.863Z,86.70
2018-09-06T23:13:46.254Z,86.80
2018-09-06T23:16:14.602Z,86.70
2018-09-06T23:21:16.762Z,86.70
2018-09-06T23:23:45.218Z,86.70
2018-09-06T23:26:13.632Z,86.70
2018-09-06T23:28:42.106Z,86.70
2018-09-06T23:31:10.532Z,86.80
2018-09-06T23:33:38.987Z,86.90
2018-09-06T23:36:07.372Z,87.00
2018-09-06T23:38:35.734Z,87.00
2018-09-06T23:41:04.249Z,87.60
2018-09-06T23:43:32.736Z,87.10
2018-09-06T23:46:01.169Z,87.20
2018-09-06T23:48:30.318Z,87.20
2018-09-06T23:50:59.216Z,87.10
2018-09-06T23:53:28.509Z,87.10
2018-09-06T23:55:57.122Z,87.30
2018-09-06T23:58:30.852Z,87.30
